createdAt,value
2019-04-10T00:01:51.406Z,97578.47
2019-04-10T00:04:23.051Z,97574.55
2019-04-10T00:06:54.233Z,97576.85
2019-04-10T00:09:27.566Z,97572.92
2019-04-10T00:11:58.993Z,97582.69
2019-04-10T00:14:29.601Z,97577.08
2019-04-10T00:17:00.528Z,97571.30
2019-04-10T00:19:31.154Z,97572.63
2019-04-10T00:22:02.743Z,97574.24
2019-04-10T00:24:33.402Z,97579.48
2019-04-10T00:27:04.119Z,97577.86
2019-04-10T00:29:34.729Z,97576.96
2019-04-10T00:32:05.734Z,97577.06
2019-04-10T00:34:36.319Z,97578.09
2019-04-10T00:37:19.063Z,97576.48
2019-04-10T00:39:39.173Z,97582.52
2019-04-10T00:42:10.502Z,97581.80
2019-04-10T00:44:46.115Z,97584.61
2019-04-10T00:47:17.032Z,97585.92
2019-04-10T00:49:48.214Z,97584.61
2019-04-10T00:52:19.748Z,97588.94
2019-04-10T00:54:51.038Z,97584.61
2019-04-10T00:57:21.696Z,97582.71
2019-04-10T00:59:52.588Z,97581.50
2019-04-10T01:02:24.837Z,97579.97
2019-04-10T01:04:55.427Z,97584.70
2019-04-10T01:07:34.165Z,97580.69
2019-04-10T01:09:58.328Z,97584.70
2019-04-10T01:12:29.880Z,97574.23
2019-04-10T01:15:00.681Z,97576.95
2019-04-10T01:17:31.277Z,97575.77
2019-04-10T01:20:01.871Z,97569.91
2019-04-10T01:22:32.945Z,97568.10
2019-04-10T01:25:03.558Z,97568.81
2019-04-10T01:27:34.152Z,97572.52
2019-04-10T01:30:05.002Z,97574.14
2019-04-10T01:32:36.380Z,97573.92
2019-04-10T01:35:07.855Z,97569.59
2019-04-10T01:37:48.637Z,97573.33
2019-04-10T01:40:11.120Z,97569.50
2019-04-10T01:42:41.712Z,97570.90
2019-04-10T01:45:13.260Z,97561.56
2019-04-10T01:47:43.839Z,97572.02
2019-04-10T01:50:14.568Z,97566.30
2019-04-10T01:52:45.100Z,97574.63
2019-04-10T01:55:23.874Z,97571.30
2019-04-10T01:57:48.477Z,97568.09
2019-04-10T02:00:21.531Z,97568.78
2019-04-10T02:02:53.916Z,97565.17
2019-04-10T02:05:24.865Z,97565.76
2019-04-10T02:08:05.301Z,97565.16
2019-04-10T02:10:27.975Z,97563.36
2019-04-10T02:12:59.046Z,97566.56
2019-04-10T02:15:30.107Z,97560.81
2019-04-10T02:18:03.241Z,97564.33
2019-04-10T02:20:34.709Z,97560.00
2019-04-10T02:23:05.864Z,97560.59
2019-04-10T02:25:36.952Z,97557.69
2019-04-10T02:28:07.552Z,97559.09
2019-04-10T02:30:39.633Z,97555.90
2019-04-10T02:33:10.803Z,97558.60
2019-04-10T02:35:41.441Z,97559.28
2019-04-10T02:38:32.613Z,97559.41
2019-04-10T02:40:45.593Z,97556.78
2019-04-10T02:43:16.389Z,97566.52
2019-04-10T02:45:47.090Z,97561.47
2019-04-10T02:48:19.895Z,97561.04
2019-04-10T02:50:51.340Z,97561.17
2019-04-10T02:53:23.263Z,97562.98
2019-04-10T02:55:55.646Z,97569.12
2019-04-10T02:58:26.555Z,97562.80
2019-04-10T03:00:58.955Z,97567.52
2019-04-10T03:03:30.011Z,97567.42
2019-04-10T03:06:00.702Z,97569.01
2019-04-10T03:08:50.481Z,97567.66
2019-04-10T03:11:06.303Z,97566.27
2019-04-10T03:13:36.014Z,97563.16
2019-04-10T03:16:07.494Z,97563.05
2019-04-10T03:18:39.111Z,97565.27
2019-04-10T03:21:11.003Z,97564.78
2019-04-10T03:23:42.108Z,97558.42
2019-04-10T03:26:13.098Z,97559.73
2019-04-10T03:28:43.782Z,97561.25
2019-04-10T03:31:15.715Z,97562.34
2019-04-10T03:33:55.953Z,97556.70
2019-04-10T03:36:29.501Z,97554.59
2019-04-10T03:39:03.607Z,97557.07
2019-04-10T03:41:33.191Z,97554.27
2019-04-10T03:44:06.067Z,97556.89
2019-04-10T03:46:38.698Z,97562.74
2019-04-10T03:49:09.623Z,97558.82
2019-04-10T03:51:40.835Z,97551.80
2019-04-10T03:54:11.423Z,97554.91
2019-04-10T03:56:42.320Z,97562.42
2019-04-10T03:59:13.755Z,97562.89
2019-04-10T04:01:44.334Z,97567.02
2019-04-10T04:04:15.479Z,97565.62
2019-04-10T04:06:46.147Z,97565.80
2019-04-10T04:09:17.629Z,97565.48
2019-04-10T04:11:48.289Z,97570.82
2019-04-10T04:14:22.110Z,97566.80
2019-04-10T04:16:52.711Z,97566.02
2019-04-10T04:19:24.081Z,97564.08
2019-04-10T04:21:55.094Z,97561.47
2019-04-10T04:24:26.625Z,97562.59
2019-04-10T04:26:57.477Z,97564.29
2019-04-10T04:29:27.981Z,97573.12
2019-04-10T04:31:59.131Z,97565.86
2019-04-10T04:34:31.305Z,97565.66
2019-04-10T04:37:02.459Z,97568.36
2019-04-10T04:39:33.072Z,97574.27
2019-04-10T04:42:03.635Z,97570.17
2019-04-10T04:44:34.234Z,97565.34
2019-04-10T04:47:06.198Z,97570.88
2019-04-10T04:49:37.754Z,97569.67
2019-04-10T04:52:11.396Z,97576.20
2019-04-10T04:54:46.148Z,97579.80
2019-04-10T04:57:17.084Z,97581.11
2019-04-10T04:59:48.748Z,97582.73
2019-04-10T05:02:19.924Z,97582.73
2019-04-10T05:04:51.459Z,97587.84
2019-04-10T05:07:22.493Z,97588.03
2019-04-10T05:09:53.142Z,97590.46
2019-04-10T05:12:23.754Z,97591.63
2019-04-10T05:14:54.333Z,97595.86
2019-04-10T05:17:28.737Z,97601.27
2019-04-10T05:19:59.343Z,97602.89
2019-04-10T05:22:29.975Z,97608.32
2019-04-10T05:25:00.702Z,97609.00
2019-04-10T05:27:31.295Z,97611.11
2019-04-10T05:30:02.438Z,97611.01
2019-04-10T05:32:33.074Z,97612.31
2019-04-10T05:35:05.805Z,97615.73
2019-04-10T05:37:35.977Z,97614.12
2019-04-10T05:40:07.712Z,97613.09
2019-04-10T05:42:39.414Z,97619.62
2019-04-10T05:45:10.099Z,97619.73
2019-04-10T05:47:40.731Z,97622.45
2019-04-10T05:50:11.475Z,97619.34
2019-04-10T05:52:43.048Z,97619.91
2019-04-10T05:55:13.971Z,97617.30
2019-04-10T05:57:45.583Z,97617.30
2019-04-10T06:00:18.863Z,97616.30
2019-04-10T06:02:50.307Z,97618.00
2019-04-10T06:05:20.879Z,97619.62
2019-04-10T06:07:54.156Z,97617.75
2019-04-10T06:10:24.766Z,97621.98
2019-04-10T06:12:55.443Z,97622.48
2019-04-10T06:15:26.593Z,97626.61
2019-04-10T06:17:58.763Z,97622.87
2019-04-10T06:20:29.341Z,97627.91
2019-04-10T06:23:01.174Z,97633.00
2019-04-10T06:25:34.127Z,97635.88
2019-04-10T06:28:05.204Z,97636.27
2019-04-10T06:30:36.312Z,97643.40
2019-04-10T06:33:07.532Z,97637.19
2019-04-10T06:35:38.172Z,97635.45
2019-04-10T06:38:08.844Z,97641.17
2019-04-10T06:40:39.444Z,97639.44
2019-04-10T06:43:11.453Z,97639.13
2019-04-10T06:45:42.033Z,97643.84
2019-04-10T06:48:13.047Z,97650.54
2019-04-10T06:50:44.794Z,97641.58
2019-04-10T06:53:17.578Z,97650.39
2019-04-10T06:55:48.895Z,97651.27
2019-04-10T06:58:20.114Z,97652.58
2019-04-10T07:00:53.058Z,97647.73
2019-04-10T07:03:23.205Z,97649.42
2019-04-10T07:06:06.274Z,97654.10
2019-04-10T07:08:27.519Z,97649.38
2019-04-10T07:11:04.738Z,97655.14
2019-04-10T07:13:30.621Z,97652.03
2019-04-10T07:16:02.100Z,97665.34
2019-04-10T07:18:35.767Z,97660.78
2019-04-10T07:21:06.318Z,97669.59
2019-04-10T07:23:38.705Z,97676.71
2019-04-10T07:26:10.152Z,97667.91
2019-04-10T07:28:43.917Z,97670.52
2019-04-10T07:31:13.567Z,97672.54
2019-04-10T07:33:47.148Z,97677.09
2019-04-10T07:36:16.409Z,97674.97
2019-04-10T07:38:47.019Z,97682.16
2019-04-10T07:41:23.091Z,97685.03
2019-04-10T07:43:55.151Z,97692.48
2019-04-10T07:46:26.209Z,97688.69
2019-04-10T07:48:57.177Z,97684.92
2019-04-10T07:51:29.734Z,97699.50
2019-04-10T07:54:00.489Z,97697.97
2019-04-10T07:56:31.256Z,97698.45
2019-04-10T07:59:02.686Z,97701.38
2019-04-10T08:01:33.493Z,97693.84
2019-04-10T08:04:04.243Z,97698.63
2019-04-10T08:06:35.290Z,97705.09
2019-04-10T08:09:08.606Z,97710.95
2019-04-10T08:11:40.110Z,97717.47
2019-04-10T08:14:12.716Z,97716.28
2019-04-10T08:16:43.421Z,97715.70
2019-04-10T08:19:14.605Z,97718.62
2019-04-10T08:21:46.390Z,97718.89
2019-04-10T08:24:18.118Z,97718.78
2019-04-10T08:26:49.280Z,97721.79
2019-04-10T08:29:19.885Z,97713.30
2019-04-10T08:31:50.462Z,97719.82
2019-04-10T08:34:21.627Z,97719.01
2019-04-10T08:36:53.844Z,97725.84
2019-04-10T08:39:38.759Z,97724.78
2019-04-10T08:41:57.881Z,97725.70
2019-04-10T08:44:29.749Z,97715.96
2019-04-10T08:47:00.404Z,97722.86
2019-04-10T08:49:31.031Z,97723.30
2019-04-10T08:52:01.668Z,97721.00
2019-04-10T08:54:32.421Z,97724.20
2019-04-10T08:57:05.370Z,97733.28
2019-04-10T08:59:36.906Z,97735.08
2019-04-10T09:02:08.080Z,97733.89
2019-04-10T09:04:39.230Z,97733.14
2019-04-10T09:07:10.041Z,97742.59
2019-04-10T09:09:41.527Z,97740.68
2019-04-10T09:12:12.343Z,97744.45
2019-04-10T09:14:43.411Z,97748.14
2019-04-10T09:17:15.386Z,97749.44
2019-04-10T09:19:46.411Z,97744.89
2019-04-10T09:22:16.903Z,97745.84
2019-04-10T09:24:48.783Z,97743.35
2019-04-10T09:27:19.436Z,97747.27
2019-04-10T09:29:50.028Z,97746.02
2019-04-10T09:32:20.590Z,97740.48
2019-04-10T09:34:52.076Z,97751.13
2019-04-10T09:37:22.688Z,97753.68
2019-04-10T09:39:54.702Z,97750.44
2019-04-10T09:42:25.676Z,97750.86
2019-04-10T09:44:57.710Z,97748.52
2019-04-10T09:47:28.284Z,97748.30
2019-04-10T09:50:03.475Z,97748.78
2019-04-10T09:52:38.392Z,97752.41
2019-04-10T09:55:13.757Z,97742.72
2019-04-10T09:57:45.910Z,97744.59
2019-04-10T10:00:16.914Z,97749.81
2019-04-10T10:02:50.721Z,97750.42
2019-04-10T10:05:26.550Z,97751.20
2019-04-10T10:08:02.267Z,97741.14
2019-04-10T10:10:36.497Z,97741.56
2019-04-10T10:13:05.423Z,97743.41
2019-04-10T10:15:36.055Z,97748.95
2019-04-10T10:18:06.608Z,97744.89
2019-04-10T10:20:37.725Z,97742.73
2019-04-10T10:23:08.329Z,97746.58
2019-04-10T10:25:39.432Z,97743.16
2019-04-10T10:28:11.691Z,97739.16
2019-04-10T10:30:42.406Z,97742.22
2019-04-10T10:33:13.241Z,97736.91
2019-04-10T10:35:45.289Z,97746.38
2019-04-10T10:38:19.031Z,97740.91
2019-04-10T10:40:50.805Z,97744.28
2019-04-10T10:43:22.535Z,97741.91
2019-04-10T10:45:53.456Z,97744.13
2019-04-10T10:48:24.048Z,97740.62
2019-04-10T10:50:54.677Z,97749.90
2019-04-10T10:53:25.221Z,97748.26
2019-04-10T10:55:56.100Z,97746.11
2019-04-10T10:58:27.903Z,97749.75
2019-04-10T11:01:01.669Z,97755.73
2019-04-10T11:03:32.280Z,97750.83
2019-04-10T11:06:03.031Z,97761.10
2019-04-10T11:08:35.508Z,97756.37
2019-04-10T11:11:06.502Z,97755.80
2019-04-10T11:13:37.219Z,97753.88
2019-04-10T11:16:09.112Z,97760.02
2019-04-10T11:18:40.371Z,97756.34
2019-04-10T11:21:12.337Z,97756.75
2019-04-10T11:23:43.919Z,97766.48
2019-04-10T11:26:19.980Z,97761.44
2019-04-10T11:28:49.596Z,97764.84
2019-04-10T11:31:19.224Z,97760.34
2019-04-10T11:33:53.010Z,97760.66
2019-04-10T11:36:22.179Z,97764.28
2019-04-10T11:38:55.395Z,97770.25
2019-04-10T11:41:30.820Z,97763.27
2019-04-10T11:44:00.559Z,97766.05
2019-04-10T11:46:32.241Z,97771.09
2019-04-10T11:49:04.943Z,97767.80
2019-04-10T11:51:36.723Z,97771.45
2019-04-10T11:54:12.437Z,97774.59
2019-04-10T11:56:40.377Z,97776.08
2019-04-10T11:59:12.374Z,97770.87
2019-04-10T12:01:46.224Z,97774.70
2019-04-10T12:04:19.195Z,97774.84
2019-04-10T12:06:52.291Z,97777.88
2019-04-10T12:10:16.996Z,97779.59
2019-04-10T12:11:53.107Z,97780.77
2019-04-10T12:14:23.786Z,97783.82
2019-04-10T12:16:55.720Z,97784.52
2019-04-10T12:19:26.959Z,97781.09
2019-04-10T12:21:58.023Z,97785.17
2019-04-10T12:24:28.599Z,97785.67
2019-04-10T12:27:00.335Z,97793.34
2019-04-10T12:29:31.055Z,97791.64
2019-04-10T12:32:01.762Z,97793.52
2019-04-10T12:34:36.157Z,97789.59
2019-04-10T12:37:06.981Z,97785.09
2019-04-10T12:39:37.630Z,97788.92
2019-04-10T12:42:08.211Z,97792.21
2019-04-10T12:44:39.990Z,97786.41
2019-04-10T12:47:11.240Z,97785.02
2019-04-10T12:49:41.790Z,97787.33
2019-04-10T12:52:14.363Z,97779.80
2019-04-10T12:54:44.997Z,97781.11
2019-04-10T12:57:16.784Z,97783.97
2019-04-10T12:59:47.824Z,97779.24
2019-04-10T13:02:18.497Z,97781.46
2019-04-10T13:04:49.092Z,97771.30
2019-04-10T13:07:19.659Z,97770.59
2019-04-10T13:09:50.492Z,97771.53
2019-04-10T13:12:21.171Z,97773.38
2019-04-10T13:14:53.070Z,97771.34
2019-04-10T13:17:24.755Z,97772.87
2019-04-10T13:19:55.607Z,97767.72
2019-04-10T13:22:26.523Z,97772.05
2019-04-10T13:24:57.726Z,97774.47
2019-04-10T13:27:28.627Z,97764.98
2019-04-10T13:29:59.203Z,97775.77
2019-04-10T13:32:29.869Z,97766.18
2019-04-10T13:35:00.461Z,97766.09
2019-04-10T13:37:31.686Z,97766.48
2019-04-10T13:40:03.457Z,97765.77
2019-04-10T13:42:34.208Z,97772.53
2019-04-10T13:45:07.471Z,97772.84
2019-04-10T13:47:38.674Z,97771.12
2019-04-10T13:50:10.658Z,97769.91
2019-04-10T13:52:44.602Z,97773.42
2019-04-10T13:55:15.579Z,97769.80
2019-04-10T13:57:46.631Z,97772.02
2019-04-10T14:00:33.532Z,97765.86
2019-04-10T14:03:04.235Z,97771.29
2019-04-10T14:05:35.396Z,97768.67
2019-04-10T14:08:08.415Z,97773.81
2019-04-10T14:10:41.232Z,97771.41
2019-04-10T14:13:11.706Z,97780.09
2019-04-10T14:15:42.290Z,97771.59
2019-04-10T14:18:14.340Z,97771.99
2019-04-10T14:20:47.894Z,97772.39
2019-04-10T14:23:28.647Z,97770.77
2019-04-10T14:26:45.879Z,97774.02
2019-04-10T14:29:12.606Z,97776.94
2019-04-10T14:31:49.037Z,97776.55
2019-04-10T14:34:22.741Z,97771.91
2019-04-10T14:36:54.520Z,97773.72
2019-04-10T14:39:27.233Z,97774.53
2019-04-10T14:41:58.073Z,97773.02
2019-04-10T14:44:28.676Z,97775.22
2019-04-10T14:47:00.225Z,97777.56
2019-04-10T14:49:31.327Z,97770.29
2019-04-10T14:52:05.146Z,97770.91
2019-04-10T14:54:35.967Z,97774.22
2019-04-10T14:57:06.799Z,97771.41
2019-04-10T14:59:37.380Z,97770.77
2019-04-10T15:02:10.699Z,97774.52
2019-04-10T15:04:41.555Z,97775.63
2019-04-10T15:07:12.347Z,97771.89
2019-04-10T15:09:44.193Z,97771.47
2019-04-10T15:12:14.856Z,97773.79
2019-04-10T15:14:45.868Z,97771.78
2019-04-10T15:17:17.455Z,97776.80
2019-04-10T15:19:50.603Z,97777.70
2019-04-10T15:22:20.474Z,97776.00
2019-04-10T15:24:52.139Z,97775.70
2019-04-10T15:27:22.733Z,97775.78
2019-04-10T15:29:54.651Z,97776.91
2019-04-10T15:32:25.363Z,97774.36
2019-04-10T15:34:55.958Z,97773.95
2019-04-10T15:37:26.578Z,97778.69
2019-04-10T15:40:10.032Z,97779.39
2019-04-10T15:42:32.162Z,97777.77
2019-04-10T15:45:03.142Z,97780.31
2019-04-10T15:47:33.649Z,97782.94
2019-04-10T15:50:04.780Z,97787.45
2019-04-10T15:52:35.471Z,97783.83
2019-04-10T15:55:07.787Z,97785.84
2019-04-10T15:57:47.685Z,97782.83
2019-04-10T16:00:12.758Z,97782.19
2019-04-10T16:02:43.410Z,97786.62
2019-04-10T16:05:15.371Z,97780.95
2019-04-10T16:07:46.905Z,97777.63
2019-04-10T16:10:51.716Z,97776.48
2019-04-10T16:13:40.851Z,97779.62
2019-04-10T16:16:48.885Z,97778.77
2019-04-10T16:19:39.288Z,97776.62
2019-04-10T16:22:19.206Z,97787.42
2019-04-10T16:24:49.980Z,97791.36
2019-04-10T16:27:22.161Z,97790.44
2019-04-10T16:29:53.109Z,97792.87
2019-04-10T16:32:26.565Z,97785.19
2019-04-10T16:34:58.824Z,97790.02
2019-04-10T16:37:29.747Z,97790.32
2019-04-10T16:40:04.426Z,97794.69
2019-04-10T16:42:34.906Z,97791.75
2019-04-10T16:45:05.988Z,97796.58
2019-04-10T16:47:36.590Z,97798.63
2019-04-10T16:50:09.161Z,97800.63
2019-04-10T16:52:40.940Z,97802.67
2019-04-10T16:55:11.717Z,97803.09
2019-04-10T16:57:45.348Z,97804.02
2019-04-10T17:00:17.200Z,97803.02
2019-04-10T17:02:48.889Z,97811.22
2019-04-10T17:05:20.573Z,97811.33
2019-04-10T17:07:51.674Z,97817.19
2019-04-10T17:10:24.872Z,97814.59
2019-04-10T17:12:55.186Z,97816.13
2019-04-10T17:15:26.106Z,97817.73
2019-04-10T17:17:56.950Z,97823.72
2019-04-10T17:20:28.805Z,97830.88
2019-04-10T17:23:00.411Z,97829.50
2019-04-10T17:25:31.099Z,97828.29
2019-04-10T17:28:04.871Z,97831.33
2019-04-10T17:30:37.893Z,97831.60
2019-04-10T17:33:09.563Z,97834.73
2019-04-10T17:35:43.457Z,97837.17
2019-04-10T17:38:14.292Z,97832.83
2019-04-10T17:40:50.617Z,97835.77
2019-04-10T17:43:17.281Z,97840.79
2019-04-10T17:45:48.949Z,97840.29
2019-04-10T17:48:19.936Z,97851.78
2019-04-10T17:50:50.609Z,97850.97
2019-04-10T17:53:21.289Z,97858.75
2019-04-10T17:55:51.882Z,97853.70
2019-04-10T17:58:22.469Z,97866.20
2019-04-10T18:00:55.789Z,97870.62
2019-04-10T18:03:40.503Z,97875.23
2019-04-10T18:05:59.308Z,97878.74
2019-04-10T18:08:30.176Z,97882.13
2019-04-10T18:11:00.954Z,97888.17
2019-04-10T18:13:31.625Z,97892.76
2019-04-10T18:16:05.198Z,97897.48
2019-04-10T18:18:37.976Z,97895.75
2019-04-10T18:21:08.721Z,97899.23
2019-04-10T18:23:39.769Z,97905.27
2019-04-10T18:26:12.610Z,97912.67
2019-04-10T18:28:43.567Z,97913.81
2019-04-10T18:31:14.241Z,97925.55
2019-04-10T18:33:44.841Z,97930.92
2019-04-10T18:36:15.477Z,97934.81
2019-04-10T18:38:46.019Z,97937.55
2019-04-10T18:41:17.914Z,97946.56
2019-04-10T18:43:48.690Z,97951.81
2019-04-10T18:46:20.853Z,97960.42
2019-04-10T18:48:51.698Z,97960.74
2019-04-10T18:51:22.278Z,97972.95
2019-04-10T18:53:53.377Z,97977.62
2019-04-10T18:56:25.064Z,97978.17
2019-04-10T18:59:10.259Z,97983.95
2019-04-10T19:01:59.849Z,97989.50
2019-04-10T19:04:39.135Z,97989.64
2019-04-10T19:07:11.125Z,97999.70
2019-04-10T19:09:43.601Z,97998.66
2019-04-10T19:12:14.668Z,98005.55
2019-04-10T19:14:46.707Z,98008.45
2019-04-10T19:17:17.535Z,98009.81
2019-04-10T19:19:48.563Z,98018.09
2019-04-10T19:22:20.310Z,98024.41
2019-04-10T19:24:52.161Z,98029.55
2019-04-10T19:27:22.869Z,98032.68
2019-04-10T19:29:53.515Z,98034.70
2019-04-10T19:32:35.261Z,98029.56
2019-04-10T19:35:07.609Z,98042.02
2019-04-10T19:37:38.815Z,98043.45
2019-04-10T19:40:11.195Z,98045.96
2019-04-10T19:42:41.878Z,98054.69
2019-04-10T19:45:12.554Z,98053.55
2019-04-10T19:47:44.307Z,98059.81
2019-04-10T19:50:15.187Z,98060.22
2019-04-10T19:52:46.765Z,98059.34
2019-04-10T19:55:17.699Z,98065.68
2019-04-10T19:57:48.387Z,98062.47
2019-04-10T20:00:22.082Z,98069.05
2019-04-10T20:02:52.819Z,98068.18
2019-04-10T20:05:25.325Z,98069.28
2019-04-10T20:07:55.978Z,98069.28
2019-04-10T20:10:27.557Z,98068.93
2019-04-10T20:12:59.253Z,98072.09
2019-04-10T20:15:30.754Z,98076.46
2019-04-10T20:18:02.241Z,98073.37
2019-04-10T20:20:32.933Z,98077.64
2019-04-10T20:23:04.747Z,98072.57
2019-04-10T20:25:35.241Z,98078.13
2019-04-10T20:28:10.632Z,98081.08
2019-04-10T20:30:42.437Z,98084.50
2019-04-10T20:33:13.090Z,98087.45
2019-04-10T20:35:44.665Z,98086.80
2019-04-10T20:38:15.563Z,98089.94
2019-04-10T20:40:46.431Z,98098.88
2019-04-10T20:43:17.028Z,98100.85
2019-04-10T20:45:47.758Z,98103.16
2019-04-10T20:48:18.400Z,98109.34
2019-04-10T20:50:50.198Z,98111.48
2019-04-10T20:53:22.025Z,98117.16
2019-04-10T20:55:54.540Z,98120.11
2019-04-10T20:58:25.393Z,98120.78
2019-04-10T21:00:58.701Z,98123.08
2019-04-10T21:03:29.682Z,98126.50
2019-04-10T21:06:00.503Z,98128.61
2019-04-10T21:08:31.080Z,98132.19
2019-04-10T21:11:03.783Z,98137.23
2019-04-10T21:13:35.547Z,98130.57
2019-04-10T21:16:07.109Z,98138.70
2019-04-10T21:18:37.811Z,98133.98
2019-04-10T21:21:10.203Z,98138.36
2019-04-10T21:23:41.898Z,98133.81
2019-04-10T21:26:14.392Z,98138.38
2019-04-10T21:28:45.764Z,98140.31
2019-04-10T21:31:34.243Z,98143.88
2019-04-10T21:34:30.447Z,98143.22
2019-04-10T21:37:03.799Z,98145.16
2019-04-10T21:39:34.419Z,98148.56
2019-04-10T21:42:14.838Z,98152.46
2019-04-10T21:44:37.356Z,98160.06
2019-04-10T21:47:08.827Z,98160.87
2019-04-10T21:49:40.026Z,98162.69
2019-04-10T21:52:10.673Z,98161.86
2019-04-10T21:54:51.106Z,98164.92
2019-04-10T21:57:18.077Z,98163.95
2019-04-10T21:59:49.648Z,98167.84
2019-04-10T22:02:21.537Z,98167.84
2019-04-10T22:04:52.294Z,98167.83
2019-04-10T22:07:43.131Z,98166.19
2019-04-10T22:10:30.095Z,98169.77
2019-04-10T22:13:01.593Z,98171.06
2019-04-10T22:15:39.448Z,98170.90
2019-04-10T22:18:12.906Z,98182.70
2019-04-10T22:20:43.741Z,98177.17
2019-04-10T22:23:14.411Z,98184.50
2019-04-10T22:25:45.887Z,98188.48
2019-04-10T22:28:17.016Z,98189.48
2019-04-10T22:30:48.439Z,98192.05
2019-04-10T22:33:20.169Z,98198.06
2019-04-10T22:35:50.843Z,98198.06
2019-04-10T22:38:21.561Z,98199.36
2019-04-10T22:40:52.202Z,98200.95
2019-04-10T22:43:22.771Z,98196.04
2019-04-10T22:45:53.384Z,98203.23
2019-04-10T22:48:26.765Z,98202.13
2019-04-10T22:50:57.461Z,98209.01
2019-04-10T22:53:28.927Z,98206.89
2019-04-10T22:56:00.444Z,98205.73
2019-04-10T22:58:31.012Z,98211.57
2019-04-10T23:01:02.554Z,98209.66
2019-04-10T23:03:33.423Z,98214.16
2019-04-10T23:06:04.912Z,98212.80
2019-04-10T23:08:35.789Z,98212.16
2019-04-10T23:11:09.988Z,98214.68
2019-04-10T23:13:40.597Z,98214.98
2019-04-10T23:16:14.154Z,98208.53
2019-04-10T23:18:47.783Z,98213.38
2019-04-10T23:21:22.809Z,98212.28
2019-04-10T23:23:53.543Z,98213.41
2019-04-10T23:26:24.982Z,98212.80
2019-04-10T23:28:55.934Z,98218.27
2019-04-10T23:31:27.784Z,98219.28
2019-04-10T23:33:58.703Z,98218.94
2019-04-10T23:36:29.898Z,98220.55
2019-04-10T23:39:00.656Z,98219.14
2019-04-10T23:41:31.736Z,98215.99
2019-04-10T23:44:02.293Z,98217.52
2019-04-10T23:46:32.909Z,98218.03
2019-04-10T23:49:03.982Z,98212.50
2019-04-10T23:51:34.881Z,98215.05
2019-04-10T23:54:05.446Z,98220.54
2019-04-10T23:56:37.859Z,98218.25
2019-04-10T23:59:08.721Z,98216.61
